<?xml version="1.0" encoding="UTF-8" standalone="no" ?>
<gpx xmlns="http://www.topografix.com/GPX/1/1" xmlns:xsi="http://www.w3.org/2001/XMLSchema-instance" xsi:schemaLocation="http://www.topografix.com/GPX/1/1 http://www.topografix.com/GPX/1/1/gpx.xsd" version="1.1" creator="VisuGPX - https://www.visugpx.com">
  <metadata>
    <name>Randonnée du col de Portet d'Aspet</name>
    <desc><![CDATA[Nous étions presque au Pic de Paloumère mais un patou gardant son troupeau nous a barré le chemin, n'étant pas à l'aise avec les chiens nous avons fait demi-tour.]]></desc>
  </metadata>
  <trk>
    <name><![CDATA[Portet-d'Aspet Randonnée_1]]></name>
    <extensions>
      <line xmlns="http://www.topografix.com/GPX/gpx_style/0/2">
        <color>0000FF</color>
        <width>4</width>
      </line>
    </extensions>
    <trkseg>
      <trkpt lat="42.9452" lon="0.85421">
        <ele>1068.6</ele>
        <time>2026-08-26T06:37:54Z</time>
      </trkpt>
      <trkpt lat="42.94517" lon="0.8542">
        <ele>1068.5</ele>
        <time>2026-08-26T06:41:00Z</time>
      </trkpt>
      <trkpt lat="42.9451" lon="0.8541">
        <ele>1069.5</ele>
        <time>2026-08-26T06:41:13Z</time>
      </trkpt>
      <trkpt lat="42.94504" lon="0.854">
        <ele>1070.2</ele>
        <time>2026-08-26T06:41:26Z</time>
      </trkpt>
      <trkpt lat="42.94502" lon="0.85386">
        <ele>1071.4</ele>
        <time>2026-08-26T06:41:39Z</time>
      </trkpt>
      <trkpt lat="42.9451" lon="0.85379">
        <ele>1072.9</ele>
        <time>2026-08-26T06:41:55Z</time>
      </trkpt>
      <trkpt lat="42.9452" lon="0.85381">
        <ele>1073.9</ele>
        <time>2026-08-26T06:42:10Z</time>
      </trkpt>
      <trkpt lat="42.94529" lon="0.85382">
        <ele>1075</ele>
        <time>2026-08-26T06:42:25Z</time>
      </trkpt>
      <trkpt lat="42.94539" lon="0.85384">
        <ele>1076.9</ele>
        <time>2026-08-26T06:42:40Z</time>
      </trkpt>
      <trkpt lat="42.94548" lon="0.85384">
        <ele>1078.8</ele>
        <time>2026-08-26T06:42:55Z</time>
      </trkpt>
      <trkpt lat="42.94557" lon="0.85382">
        <ele>1080.8</ele>
        <time>2026-08-26T06:43:10Z</time>
      </trkpt>
      <trkpt lat="42.94567" lon="0.8538">
        <ele>1083.1</ele>
        <time>2026-08-26T06:43:26Z</time>
      </trkpt>
      <trkpt lat="42.94577" lon="0.8538">
        <ele>1085.3</ele>
        <time>2026-08-26T06:43:41Z</time>
      </trkpt>
      <trkpt lat="42.94586" lon="0.85381">
        <ele>1087.2</ele>
        <time>2026-08-26T06:44:05Z</time>
      </trkpt>
      <trkpt lat="42.94598" lon="0.85385">
        <ele>1090</ele>
        <time>2026-08-26T06:44:27Z</time>
      </trkpt>
      <trkpt lat="42.9461" lon="0.85389">
        <ele>1092.7</ele>
        <time>2026-08-26T06:44:47Z</time>
      </trkpt>
      <trkpt lat="42.94621" lon="0.85389">
        <ele>1095.5</ele>
        <time>2026-08-26T06:45:03Z</time>
      </trkpt>
      <trkpt lat="42.94631" lon="0.85392">
        <ele>1097.6</ele>
        <time>2026-08-26T06:45:25Z</time>
      </trkpt>
      <trkpt lat="42.94645" lon="0.85403">
        <ele>1100.2</ele>
        <time>2026-08-26T06:45:46Z</time>
      </trkpt>
      <trkpt lat="42.94658" lon="0.85408">
        <ele>1103.4</ele>
        <time>2026-08-26T06:46:06Z</time>
      </trkpt>
      <trkpt lat="42.94666" lon="0.85406">
        <ele>1106</ele>
        <time>2026-08-26T06:46:32Z</time>
      </trkpt>
      <trkpt lat="42.94671" lon="0.85399">
        <ele>1108.5</ele>
        <time>2026-08-26T06:46:52Z</time>
      </trkpt>
      <trkpt lat="42.9468" lon="0.85396">
        <ele>1112.2</ele>
        <time>2026-08-26T06:47:11Z</time>
      </trkpt>
      <trkpt lat="42.94686" lon="0.85386">
        <ele>1115.3</ele>
        <time>2026-08-26T06:47:30Z</time>
      </trkpt>
      <trkpt lat="42.94692" lon="0.85377">
        <ele>1118.4</ele>
        <time>2026-08-26T06:47:51Z</time>
      </trkpt>
      <trkpt lat="42.94701" lon="0.85374">
        <ele>1122.5</ele>
        <time>2026-08-26T06:48:17Z</time>
      </trkpt>
      <trkpt lat="42.94708" lon="0.85366">
        <ele>1126.4</ele>
        <time>2026-08-26T06:48:38Z</time>
      </trkpt>
      <trkpt lat="42.94715" lon="0.85358">
        <ele>1130</ele>
        <time>2026-08-26T06:48:59Z</time>
      </trkpt>
      <trkpt lat="42.94721" lon="0.8535">
        <ele>1132.9</ele>
        <time>2026-08-26T06:49:21Z</time>
      </trkpt>
      <trkpt lat="42.94729" lon="0.85344">
        <ele>1136.5</ele>
        <time>2026-08-26T06:49:48Z</time>
      </trkpt>
      <trkpt lat="42.94738" lon="0.8534">
        <ele>1140.6</ele>
        <time>2026-08-26T06:50:17Z</time>
      </trkpt>
      <trkpt lat="42.94747" lon="0.85334">
        <ele>1144.7</ele>
        <time>2026-08-26T06:50:45Z</time>
      </trkpt>
      <trkpt lat="42.94752" lon="0.85318">
        <ele>1146.9</ele>
        <time>2026-08-26T06:51:05Z</time>
      </trkpt>
      <trkpt lat="42.94759" lon="0.85305">
        <ele>1149.9</ele>
        <time>2026-08-26T06:51:27Z</time>
      </trkpt>
      <trkpt lat="42.94763" lon="0.85301">
        <ele>1151.7</ele>
        <time>2026-08-26T06:52:27Z</time>
      </trkpt>
      <trkpt lat="42.9476" lon="0.85301">
        <ele>1150.4</ele>
        <time>2026-08-26T06:53:33Z</time>
      </trkpt>
      <trkpt lat="42.94759" lon="0.85297">
        <ele>1150.1</ele>
        <time>2026-08-26T06:54:00Z</time>
      </trkpt>
      <trkpt lat="42.94763" lon="0.85288">
        <ele>1152</ele>
        <time>2026-08-26T06:54:35Z</time>
      </trkpt>
      <trkpt lat="42.94769" lon="0.85279">
        <ele>1154.5</ele>
        <time>2026-08-26T06:55:14Z</time>
      </trkpt>
      <trkpt lat="42.94777" lon="0.85274">
        <ele>1157.6</ele>
        <time>2026-08-26T06:55:43Z</time>
      </trkpt>
      <trkpt lat="42.94783" lon="0.85268">
        <ele>1159.8</ele>
        <time>2026-08-26T06:56:14Z</time>
      </trkpt>
      <trkpt lat="42.94787" lon="0.85256">
        <ele>1161.1</ele>
        <time>2026-08-26T06:56:39Z</time>
      </trkpt>
      <trkpt lat="42.94793" lon="0.85245">
        <ele>1163.4</ele>
        <time>2026-08-26T06:57:13Z</time>
      </trkpt>
      <trkpt lat="42.94801" lon="0.85234">
        <ele>1166.1</ele>
        <time>2026-08-26T06:57:33Z</time>
      </trkpt>
      <trkpt lat="42.94808" lon="0.85225">
        <ele>1168.3</ele>
        <time>2026-08-26T06:57:54Z</time>
      </trkpt>
      <trkpt lat="42.94814" lon="0.85216">
        <ele>1170.7</ele>
        <time>2026-08-26T06:58:18Z</time>
      </trkpt>
      <trkpt lat="42.94821" lon="0.85201">
        <ele>1173</ele>
        <time>2026-08-26T06:58:39Z</time>
      </trkpt>
      <trkpt lat="42.9483" lon="0.85193">
        <ele>1176.5</ele>
        <time>2026-08-26T06:59:01Z</time>
      </trkpt>
      <trkpt lat="42.94838" lon="0.85183">
        <ele>1179.6</ele>
        <time>2026-08-26T06:59:27Z</time>
      </trkpt>
      <trkpt lat="42.94848" lon="0.85173">
        <ele>1183.3</ele>
        <time>2026-08-26T06:59:48Z</time>
      </trkpt>
      <trkpt lat="42.94861" lon="0.85163">
        <ele>1187.6</ele>
        <time>2026-08-26T07:00:13Z</time>
      </trkpt>
      <trkpt lat="42.94871" lon="0.85156">
        <ele>1190.8</ele>
        <time>2026-08-26T07:00:38Z</time>
      </trkpt>
      <trkpt lat="42.94885" lon="0.85154">
        <ele>1196.2</ele>
        <time>2026-08-26T07:01:00Z</time>
      </trkpt>
      <trkpt lat="42.94898" lon="0.85148">
        <ele>1199.7</ele>
        <time>2026-08-26T07:01:23Z</time>
      </trkpt>
      <trkpt lat="42.94908" lon="0.85148">
        <ele>1203.1</ele>
        <time>2026-08-26T07:01:49Z</time>
      </trkpt>
      <trkpt lat="42.94919" lon="0.85145">
        <ele>1206.1</ele>
        <time>2026-08-26T07:02:13Z</time>
      </trkpt>
      <trkpt lat="42.94931" lon="0.85137">
        <ele>1208.2</ele>
        <time>2026-08-26T07:03:22Z</time>
      </trkpt>
      <trkpt lat="42.94931" lon="0.85133">
        <ele>1207.2</ele>
        <time>2026-08-26T07:04:16Z</time>
      </trkpt>
      <trkpt lat="42.94943" lon="0.85137">
        <ele>1212.1</ele>
        <time>2026-08-26T07:04:36Z</time>
      </trkpt>
      <trkpt lat="42.94956" lon="0.8514">
        <ele>1216.6</ele>
        <time>2026-08-26T07:04:54Z</time>
      </trkpt>
      <trkpt lat="42.94962" lon="0.85147">
        <ele>1219.8</ele>
        <time>2026-08-26T07:05:20Z</time>
      </trkpt>
      <trkpt lat="42.94964" lon="0.85164">
        <ele>1224.1</ele>
        <time>2026-08-26T07:05:43Z</time>
      </trkpt>
      <trkpt lat="42.94958" lon="0.85177">
        <ele>1225.5</ele>
        <time>2026-08-26T07:06:03Z</time>
      </trkpt>
      <trkpt lat="42.9495" lon="0.85192">
        <ele>1227</ele>
        <time>2026-08-26T07:06:23Z</time>
      </trkpt>
      <trkpt lat="42.94959" lon="0.85188">
        <ele>1228.6</ele>
        <time>2026-08-26T07:06:40Z</time>
      </trkpt>
      <trkpt lat="42.94965" lon="0.85177">
        <ele>1227.5</ele>
        <time>2026-08-26T07:06:54Z</time>
      </trkpt>
      <trkpt lat="42.94972" lon="0.85168">
        <ele>1227.3</ele>
        <time>2026-08-26T07:07:08Z</time>
      </trkpt>
      <trkpt lat="42.94981" lon="0.85161">
        <ele>1229.3</ele>
        <time>2026-08-26T07:07:22Z</time>
      </trkpt>
      <trkpt lat="42.94989" lon="0.8515">
        <ele>1230.4</ele>
        <time>2026-08-26T07:07:39Z</time>
      </trkpt>
      <trkpt lat="42.94998" lon="0.85139">
        <ele>1232.2</ele>
        <time>2026-08-26T07:07:52Z</time>
      </trkpt>
      <trkpt lat="42.95004" lon="0.85127">
        <ele>1234</ele>
        <time>2026-08-26T07:08:06Z</time>
      </trkpt>
      <trkpt lat="42.9501" lon="0.85114">
        <ele>1236.1</ele>
        <time>2026-08-26T07:08:20Z</time>
      </trkpt>
      <trkpt lat="42.95014" lon="0.85099">
        <ele>1237.6</ele>
        <time>2026-08-26T07:08:33Z</time>
      </trkpt>
      <trkpt lat="42.95017" lon="0.85084">
        <ele>1238.8</ele>
        <time>2026-08-26T07:08:46Z</time>
      </trkpt>
      <trkpt lat="42.95019" lon="0.85069">
        <ele>1240.3</ele>
        <time>2026-08-26T07:08:59Z</time>
      </trkpt>
      <trkpt lat="42.95022" lon="0.85054">
        <ele>1242.6</ele>
        <time>2026-08-26T07:09:13Z</time>
      </trkpt>
      <trkpt lat="42.95028" lon="0.85066">
        <ele>1245.8</ele>
        <time>2026-08-26T07:09:37Z</time>
      </trkpt>
      <trkpt lat="42.95032" lon="0.85085">
        <ele>1247.8</ele>
        <time>2026-08-26T07:09:59Z</time>
      </trkpt>
      <trkpt lat="42.95034" lon="0.85104">
        <ele>1249.8</ele>
        <time>2026-08-26T07:10:39Z</time>
      </trkpt>
      <trkpt lat="42.95035" lon="0.85119">
        <ele>1251.5</ele>
        <time>2026-08-26T07:11:05Z</time>
      </trkpt>
      <trkpt lat="42.95039" lon="0.85133">
        <ele>1255.3</ele>
        <time>2026-08-26T07:11:30Z</time>
      </trkpt>
      <trkpt lat="42.95042" lon="0.85151">
        <ele>1259.4</ele>
        <time>2026-08-26T07:11:55Z</time>
      </trkpt>
      <trkpt lat="42.95043" lon="0.85163">
        <ele>1261.8</ele>
        <time>2026-08-26T07:12:17Z</time>
      </trkpt>
      <trkpt lat="42.95045" lon="0.85182">
        <ele>1266.9</ele>
        <time>2026-08-26T07:12:35Z</time>
      </trkpt>
      <trkpt lat="42.95044" lon="0.85194">
        <ele>1268.8</ele>
        <time>2026-08-26T07:12:52Z</time>
      </trkpt>
      <trkpt lat="42.95047" lon="0.85209">
        <ele>1273.7</ele>
        <time>2026-08-26T07:13:12Z</time>
      </trkpt>
      <trkpt lat="42.95051" lon="0.85215">
        <ele>1277.5</ele>
        <time>2026-08-26T07:13:33Z</time>
      </trkpt>
      <trkpt lat="42.95055" lon="0.85196">
        <ele>1276</ele>
        <time>2026-08-26T07:13:51Z</time>
      </trkpt>
      <trkpt lat="42.95062" lon="0.85178">
        <ele>1276.5</ele>
        <time>2026-08-26T07:14:11Z</time>
      </trkpt>
      <trkpt lat="42.95066" lon="0.85162">
        <ele>1276</ele>
        <time>2026-08-26T07:14:28Z</time>
      </trkpt>
      <trkpt lat="42.95071" lon="0.85148">
        <ele>1276.9</ele>
        <time>2026-08-26T07:14:42Z</time>
      </trkpt>
      <trkpt lat="42.95076" lon="0.85132">
        <ele>1278</ele>
        <time>2026-08-26T07:14:59Z</time>
      </trkpt>
      <trkpt lat="42.95084" lon="0.8512">
        <ele>1282</ele>
        <time>2026-08-26T07:15:16Z</time>
      </trkpt>
      <trkpt lat="42.95093" lon="0.85104">
        <ele>1286.7</ele>
        <time>2026-08-26T07:15:31Z</time>
      </trkpt>
      <trkpt lat="42.95093" lon="0.85091">
        <ele>1286.2</ele>
        <time>2026-08-26T07:15:54Z</time>
      </trkpt>
      <trkpt lat="42.95095" lon="0.85078">
        <ele>1287.3</ele>
        <time>2026-08-26T07:16:19Z</time>
      </trkpt>
      <trkpt lat="42.95094" lon="0.85066">
        <ele>1287.2</ele>
        <time>2026-08-26T07:17:21Z</time>
      </trkpt>
      <trkpt lat="42.95096" lon="0.85071">
        <ele>1288.2</ele>
        <time>2026-08-26T07:18:26Z</time>
      </trkpt>
      <trkpt lat="42.95098" lon="0.85056">
        <ele>1290</ele>
        <time>2026-08-26T07:18:45Z</time>
      </trkpt>
      <trkpt lat="42.95102" lon="0.85042">
        <ele>1293.1</ele>
        <time>2026-08-26T07:19:20Z</time>
      </trkpt>
      <trkpt lat="42.95102" lon="0.85023">
        <ele>1294.2</ele>
        <time>2026-08-26T07:19:39Z</time>
      </trkpt>
      <trkpt lat="42.95102" lon="0.85009">
        <ele>1295.3</ele>
        <time>2026-08-26T07:20:05Z</time>
      </trkpt>
      <trkpt lat="42.95108" lon="0.85003">
        <ele>1299.1</ele>
        <time>2026-08-26T07:20:42Z</time>
      </trkpt>
      <trkpt lat="42.95108" lon="0.84988">
        <ele>1300.2</ele>
        <time>2026-08-26T07:21:04Z</time>
      </trkpt>
      <trkpt lat="42.95111" lon="0.84971">
        <ele>1303</ele>
        <time>2026-08-26T07:21:21Z</time>
      </trkpt>
      <trkpt lat="42.95116" lon="0.84956">
        <ele>1305.9</ele>
        <time>2026-08-26T07:21:42Z</time>
      </trkpt>
      <trkpt lat="42.95117" lon="0.84941">
        <ele>1306.8</ele>
        <time>2026-08-26T07:21:57Z</time>
      </trkpt>
      <trkpt lat="42.9512" lon="0.84925">
        <ele>1308.2</ele>
        <time>2026-08-26T07:22:18Z</time>
      </trkpt>
      <trkpt lat="42.95124" lon="0.8491">
        <ele>1309.7</ele>
        <time>2026-08-26T07:22:43Z</time>
      </trkpt>
      <trkpt lat="42.95126" lon="0.84899">
        <ele>1310</ele>
        <time>2026-08-26T07:23:06Z</time>
      </trkpt>
      <trkpt lat="42.9513" lon="0.84886">
        <ele>1311.3</ele>
        <time>2026-08-26T07:23:23Z</time>
      </trkpt>
      <trkpt lat="42.95139" lon="0.84867">
        <ele>1314.5</ele>
        <time>2026-08-26T07:23:42Z</time>
      </trkpt>
      <trkpt lat="42.95145" lon="0.84852">
        <ele>1316.1</ele>
        <time>2026-08-26T07:23:58Z</time>
      </trkpt>
      <trkpt lat="42.95151" lon="0.84841">
        <ele>1318.1</ele>
        <time>2026-08-26T07:24:19Z</time>
      </trkpt>
      <trkpt lat="42.95157" lon="0.8483">
        <ele>1320.4</ele>
        <time>2026-08-26T07:24:41Z</time>
      </trkpt>
      <trkpt lat="42.95168" lon="0.84824">
        <ele>1325.2</ele>
        <time>2026-08-26T07:25:02Z</time>
      </trkpt>
      <trkpt lat="42.95179" lon="0.84816">
        <ele>1329.3</ele>
        <time>2026-08-26T07:25:26Z</time>
      </trkpt>
      <trkpt lat="42.95187" lon="0.84805">
        <ele>1332.1</ele>
        <time>2026-08-26T07:25:46Z</time>
      </trkpt>
      <trkpt lat="42.95196" lon="0.84798">
        <ele>1335.6</ele>
        <time>2026-08-26T07:26:08Z</time>
      </trkpt>
      <trkpt lat="42.95205" lon="0.84786">
        <ele>1338.8</ele>
        <time>2026-08-26T07:26:26Z</time>
      </trkpt>
      <trkpt lat="42.95213" lon="0.8478">
        <ele>1341.7</ele>
        <time>2026-08-26T07:26:44Z</time>
      </trkpt>
      <trkpt lat="42.95221" lon="0.84775">
        <ele>1344.7</ele>
        <time>2026-08-26T07:27:00Z</time>
      </trkpt>
      <trkpt lat="42.9523" lon="0.84767">
        <ele>1347.9</ele>
        <time>2026-08-26T07:27:16Z</time>
      </trkpt>
      <trkpt lat="42.9524" lon="0.8476">
        <ele>1351.4</ele>
        <time>2026-08-26T07:27:32Z</time>
      </trkpt>
      <trkpt lat="42.95252" lon="0.84755">
        <ele>1355.4</ele>
        <time>2026-08-26T07:27:49Z</time>
      </trkpt>
      <trkpt lat="42.95264" lon="0.84751">
        <ele>1359</ele>
        <time>2026-08-26T07:28:04Z</time>
      </trkpt>
      <trkpt lat="42.95277" lon="0.84747">
        <ele>1362.9</ele>
        <time>2026-08-26T07:28:22Z</time>
      </trkpt>
      <trkpt lat="42.95286" lon="0.84749">
        <ele>1365.7</ele>
        <time>2026-08-26T07:28:41Z</time>
      </trkpt>
      <trkpt lat="42.95294" lon="0.84748">
        <ele>1368.3</ele>
        <time>2026-08-26T07:29:04Z</time>
      </trkpt>
      <trkpt lat="42.95304" lon="0.8475">
        <ele>1371.5</ele>
        <time>2026-08-26T07:29:29Z</time>
      </trkpt>
      <trkpt lat="42.95318" lon="0.84756">
        <ele>1376.5</ele>
        <time>2026-08-26T07:29:53Z</time>
      </trkpt>
      <trkpt lat="42.95324" lon="0.84767">
        <ele>1378.6</ele>
        <time>2026-08-26T07:30:15Z</time>
      </trkpt>
      <trkpt lat="42.95333" lon="0.84772">
        <ele>1381.9</ele>
        <time>2026-08-26T07:30:40Z</time>
      </trkpt>
      <trkpt lat="42.9534" lon="0.84783">
        <ele>1384.1</ele>
        <time>2026-08-26T07:31:04Z</time>
      </trkpt>
      <trkpt lat="42.95345" lon="0.84787">
        <ele>1385.6</ele>
        <time>2026-08-26T07:31:35Z</time>
      </trkpt>
      <trkpt lat="42.95352" lon="0.8479">
        <ele>1387.8</ele>
        <time>2026-08-26T07:32:03Z</time>
      </trkpt>
      <trkpt lat="42.95365" lon="0.84793">
        <ele>1391.7</ele>
        <time>2026-08-26T07:32:28Z</time>
      </trkpt>
      <trkpt lat="42.95371" lon="0.84803">
        <ele>1393</ele>
        <time>2026-08-26T07:32:57Z</time>
      </trkpt>
      <trkpt lat="42.95378" lon="0.84812">
        <ele>1394.8</ele>
        <time>2026-08-26T07:33:31Z</time>
      </trkpt>
      <trkpt lat="42.95385" lon="0.84824">
        <ele>1396.4</ele>
        <time>2026-08-26T07:34:12Z</time>
      </trkpt>
      <trkpt lat="42.95387" lon="0.84836">
        <ele>1397.2</ele>
        <time>2026-08-26T07:34:35Z</time>
      </trkpt>
      <trkpt lat="42.95396" lon="0.84841">
        <ele>1400.9</ele>
        <time>2026-08-26T07:34:57Z</time>
      </trkpt>
      <trkpt lat="42.95405" lon="0.84842">
        <ele>1403.5</ele>
        <time>2026-08-26T07:35:17Z</time>
      </trkpt>
      <trkpt lat="42.95414" lon="0.84843">
        <ele>1406</ele>
        <time>2026-08-26T07:35:39Z</time>
      </trkpt>
      <trkpt lat="42.95422" lon="0.84852">
        <ele>1408.8</ele>
        <time>2026-08-26T07:35:57Z</time>
      </trkpt>
      <trkpt lat="42.9543" lon="0.84859">
        <ele>1410.5</ele>
        <time>2026-08-26T07:36:17Z</time>
      </trkpt>
      <trkpt lat="42.95439" lon="0.84861">
        <ele>1412</ele>
        <time>2026-08-26T07:36:36Z</time>
      </trkpt>
      <trkpt lat="42.95449" lon="0.84866">
        <ele>1415.1</ele>
        <time>2026-08-26T07:36:53Z</time>
      </trkpt>
      <trkpt lat="42.95459" lon="0.84869">
        <ele>1417.4</ele>
        <time>2026-08-26T07:37:11Z</time>
      </trkpt>
      <trkpt lat="42.95469" lon="0.84875">
        <ele>1419.6</ele>
        <time>2026-08-26T07:37:27Z</time>
      </trkpt>
      <trkpt lat="42.95479" lon="0.84876">
        <ele>1421.4</ele>
        <time>2026-08-26T07:37:44Z</time>
      </trkpt>
      <trkpt lat="42.95489" lon="0.84881">
        <ele>1423.1</ele>
        <time>2026-08-26T07:38:02Z</time>
      </trkpt>
      <trkpt lat="42.955" lon="0.8488">
        <ele>1425</ele>
        <time>2026-08-26T07:38:17Z</time>
      </trkpt>
      <trkpt lat="42.9551" lon="0.84881">
        <ele>1426.4</ele>
        <time>2026-08-26T07:38:32Z</time>
      </trkpt>
      <trkpt lat="42.95516" lon="0.84888">
        <ele>1426.9</ele>
        <time>2026-08-26T07:44:01Z</time>
      </trkpt>
      <trkpt lat="42.95519" lon="0.84878">
        <ele>1428.1</ele>
        <time>2026-08-26T07:45:57Z</time>
      </trkpt>
      <trkpt lat="42.95526" lon="0.84873">
        <ele>1429.3</ele>
        <time>2026-08-26T07:46:14Z</time>
      </trkpt>
      <trkpt lat="42.95533" lon="0.84863">
        <ele>1431.2</ele>
        <time>2026-08-26T07:46:34Z</time>
      </trkpt>
      <trkpt lat="42.95541" lon="0.84855">
        <ele>1435</ele>
        <time>2026-08-26T07:46:54Z</time>
      </trkpt>
      <trkpt lat="42.9555" lon="0.8485">
        <ele>1438.7</ele>
        <time>2026-08-26T07:47:15Z</time>
      </trkpt>
      <trkpt lat="42.95561" lon="0.84851">
        <ele>1442.5</ele>
        <time>2026-08-26T07:47:39Z</time>
      </trkpt>
      <trkpt lat="42.9557" lon="0.84853">
        <ele>1446.3</ele>
        <time>2026-08-26T07:48:03Z</time>
      </trkpt>
      <trkpt lat="42.95577" lon="0.84853">
        <ele>1449.7</ele>
        <time>2026-08-26T07:48:40Z</time>
      </trkpt>
      <trkpt lat="42.95585" lon="0.84859">
        <ele>1452.2</ele>
        <time>2026-08-26T07:49:07Z</time>
      </trkpt>
      <trkpt lat="42.9559" lon="0.84867">
        <ele>1454.3</ele>
        <time>2026-08-26T07:49:37Z</time>
      </trkpt>
      <trkpt lat="42.95597" lon="0.8486">
        <ele>1457.6</ele>
        <time>2026-08-26T07:50:05Z</time>
      </trkpt>
      <trkpt lat="42.95605" lon="0.84871">
        <ele>1462</ele>
        <time>2026-08-26T07:50:32Z</time>
      </trkpt>
      <trkpt lat="42.95613" lon="0.84879">
        <ele>1466.5</ele>
        <time>2026-08-26T07:50:52Z</time>
      </trkpt>
      <trkpt lat="42.95622" lon="0.8487">
        <ele>1468.5</ele>
        <time>2026-08-26T07:51:18Z</time>
      </trkpt>
      <trkpt lat="42.95632" lon="0.84869">
        <ele>1471.6</ele>
        <time>2026-08-26T07:51:36Z</time>
      </trkpt>
      <trkpt lat="42.95643" lon="0.84872">
        <ele>1474.3</ele>
        <time>2026-08-26T07:51:58Z</time>
      </trkpt>
      <trkpt lat="42.95649" lon="0.84865">
        <ele>1474.2</ele>
        <time>2026-08-26T07:53:13Z</time>
      </trkpt>
      <trkpt lat="42.95652" lon="0.84856">
        <ele>1476.6</ele>
        <time>2026-08-26T07:53:37Z</time>
      </trkpt>
      <trkpt lat="42.95658" lon="0.84847">
        <ele>1481.5</ele>
        <time>2026-08-26T07:54:27Z</time>
      </trkpt>
      <trkpt lat="42.95659" lon="0.84831">
        <ele>1488.8</ele>
        <time>2026-08-26T07:54:52Z</time>
      </trkpt>
      <trkpt lat="42.9566" lon="0.8482">
        <ele>1492.4</ele>
        <time>2026-08-26T07:55:28Z</time>
      </trkpt>
      <trkpt lat="42.95664" lon="0.84803">
        <ele>1498.1</ele>
        <time>2026-08-26T07:55:55Z</time>
      </trkpt>
      <trkpt lat="42.95666" lon="0.84793">
        <ele>1498.8</ele>
        <time>2026-08-26T07:56:43Z</time>
      </trkpt>
      <trkpt lat="42.95662" lon="0.84775">
        <ele>1497.6</ele>
        <time>2026-08-26T07:57:04Z</time>
      </trkpt>
      <trkpt lat="42.95658" lon="0.84759">
        <ele>1497.9</ele>
        <time>2026-08-26T07:57:25Z</time>
      </trkpt>
      <trkpt lat="42.95655" lon="0.84742">
        <ele>1499.3</ele>
        <time>2026-08-26T07:57:45Z</time>
      </trkpt>
      <trkpt lat="42.95653" lon="0.84725">
        <ele>1502</ele>
        <time>2026-08-26T07:58:08Z</time>
      </trkpt>
      <trkpt lat="42.95653" lon="0.84714">
        <ele>1503.9</ele>
        <time>2026-08-26T07:59:05Z</time>
      </trkpt>
      <trkpt lat="42.95647" lon="0.84699">
        <ele>1505.4</ele>
        <time>2026-08-26T07:59:32Z</time>
      </trkpt>
      <trkpt lat="42.95649" lon="0.84687">
        <ele>1507.4</ele>
        <time>2026-08-26T08:00:00Z</time>
      </trkpt>
      <trkpt lat="42.95644" lon="0.84673">
        <ele>1509</ele>
        <time>2026-08-26T08:00:33Z</time>
      </trkpt>
      <trkpt lat="42.95636" lon="0.84657">
        <ele>1509.9</ele>
        <time>2026-08-26T08:00:52Z</time>
      </trkpt>
      <trkpt lat="42.95639" lon="0.84637">
        <ele>1513.2</ele>
        <time>2026-08-26T08:01:12Z</time>
      </trkpt>
      <trkpt lat="42.95638" lon="0.8462">
        <ele>1514.7</ele>
        <time>2026-08-26T08:01:35Z</time>
      </trkpt>
      <trkpt lat="42.95642" lon="0.84599">
        <ele>1515.5</ele>
        <time>2026-08-26T08:01:56Z</time>
      </trkpt>
      <trkpt lat="42.95645" lon="0.8458">
        <ele>1515.1</ele>
        <time>2026-08-26T08:02:21Z</time>
      </trkpt>
      <trkpt lat="42.95648" lon="0.84565">
        <ele>1514.5</ele>
        <time>2026-08-26T08:02:47Z</time>
      </trkpt>
      <trkpt lat="42.95647" lon="0.84546">
        <ele>1514.9</ele>
        <time>2026-08-26T08:03:06Z</time>
      </trkpt>
      <trkpt lat="42.9565" lon="0.84529">
        <ele>1514.4</ele>
        <time>2026-08-26T08:03:25Z</time>
      </trkpt>
      <trkpt lat="42.9565" lon="0.84512">
        <ele>1514.2</ele>
        <time>2026-08-26T08:03:43Z</time>
      </trkpt>
      <trkpt lat="42.95648" lon="0.84496">
        <ele>1514</ele>
        <time>2026-08-26T08:04:00Z</time>
      </trkpt>
      <trkpt lat="42.95645" lon="0.8448">
        <ele>1514.2</ele>
        <time>2026-08-26T08:04:15Z</time>
      </trkpt>
      <trkpt lat="42.95647" lon="0.84467">
        <ele>1514.2</ele>
        <time>2026-08-26T08:04:28Z</time>
      </trkpt>
      <trkpt lat="42.95648" lon="0.84451">
        <ele>1514.1</ele>
        <time>2026-08-26T08:04:44Z</time>
      </trkpt>
      <trkpt lat="42.95649" lon="0.84434">
        <ele>1514.2</ele>
        <time>2026-08-26T08:05:03Z</time>
      </trkpt>
      <trkpt lat="42.95651" lon="0.84419">
        <ele>1514.2</ele>
        <time>2026-08-26T08:05:56Z</time>
      </trkpt>
      <trkpt lat="42.95653" lon="0.84412">
        <ele>1514</ele>
        <time>2026-08-26T08:06:21Z</time>
      </trkpt>
      <trkpt lat="42.95658" lon="0.84397">
        <ele>1513.2</ele>
        <time>2026-08-26T08:06:55Z</time>
      </trkpt>
      <trkpt lat="42.95661" lon="0.84377">
        <ele>1512.3</ele>
        <time>2026-08-26T08:07:16Z</time>
      </trkpt>
      <trkpt lat="42.95665" lon="0.84365">
        <ele>1510.8</ele>
        <time>2026-08-26T08:07:36Z</time>
      </trkpt>
      <trkpt lat="42.9567" lon="0.84354">
        <ele>1509.4</ele>
        <time>2026-08-26T08:07:50Z</time>
      </trkpt>
      <trkpt lat="42.95676" lon="0.84343">
        <ele>1508.3</ele>
        <time>2026-08-26T08:08:02Z</time>
      </trkpt>
      <trkpt lat="42.95681" lon="0.84331">
        <ele>1508.2</ele>
        <time>2026-08-26T08:08:14Z</time>
      </trkpt>
      <trkpt lat="42.95687" lon="0.84321">
        <ele>1507</ele>
        <time>2026-08-26T08:08:33Z</time>
      </trkpt>
      <trkpt lat="42.95691" lon="0.8431">
        <ele>1506.9</ele>
        <time>2026-08-26T08:08:45Z</time>
      </trkpt>
      <trkpt lat="42.95694" lon="0.84298">
        <ele>1506.5</ele>
        <time>2026-08-26T08:08:58Z</time>
      </trkpt>
      <trkpt lat="42.95699" lon="0.84288">
        <ele>1505.1</ele>
        <time>2026-08-26T08:09:10Z</time>
      </trkpt>
      <trkpt lat="42.95706" lon="0.84278">
        <ele>1503.7</ele>
        <time>2026-08-26T08:09:24Z</time>
      </trkpt>
      <trkpt lat="42.95713" lon="0.84267">
        <ele>1502.6</ele>
        <time>2026-08-26T08:10:30Z</time>
      </trkpt>
      <trkpt lat="42.95722" lon="0.84261">
        <ele>1502</ele>
        <time>2026-08-26T08:10:41Z</time>
      </trkpt>
      <trkpt lat="42.95731" lon="0.84264">
        <ele>1503.2</ele>
        <time>2026-08-26T08:10:54Z</time>
      </trkpt>
      <trkpt lat="42.95742" lon="0.84268">
        <ele>1504.4</ele>
        <time>2026-08-26T08:11:08Z</time>
      </trkpt>
      <trkpt lat="42.9575" lon="0.84274">
        <ele>1504.1</ele>
        <time>2026-08-26T08:11:22Z</time>
      </trkpt>
      <trkpt lat="42.95758" lon="0.84279">
        <ele>1504.7</ele>
        <time>2026-08-26T08:11:35Z</time>
      </trkpt>
      <trkpt lat="42.95768" lon="0.84281">
        <ele>1506.8</ele>
        <time>2026-08-26T08:11:52Z</time>
      </trkpt>
      <trkpt lat="42.95778" lon="0.84279">
        <ele>1509.7</ele>
        <time>2026-08-26T08:12:10Z</time>
      </trkpt>
      <trkpt lat="42.95787" lon="0.84273">
        <ele>1512</ele>
        <time>2026-08-26T08:12:29Z</time>
      </trkpt>
      <trkpt lat="42.95794" lon="0.84269">
        <ele>1513.5</ele>
        <time>2026-08-26T08:12:45Z</time>
      </trkpt>
      <trkpt lat="42.95802" lon="0.8426">
        <ele>1516.3</ele>
        <time>2026-08-26T08:13:07Z</time>
      </trkpt>
      <trkpt lat="42.95805" lon="0.84249">
        <ele>1519.2</ele>
        <time>2026-08-26T08:13:26Z</time>
      </trkpt>
      <trkpt lat="42.95808" lon="0.84236">
        <ele>1522.3</ele>
        <time>2026-08-26T08:13:56Z</time>
      </trkpt>
      <trkpt lat="42.95809" lon="0.84223">
        <ele>1525.2</ele>
        <time>2026-08-26T08:14:12Z</time>
      </trkpt>
      <trkpt lat="42.95813" lon="0.84212">
        <ele>1527.8</ele>
        <time>2026-08-26T08:14:27Z</time>
      </trkpt>
      <trkpt lat="42.95812" lon="0.842">
        <ele>1530.1</ele>
        <time>2026-08-26T08:14:42Z</time>
      </trkpt>
      <trkpt lat="42.95815" lon="0.84189">
        <ele>1532.4</ele>
        <time>2026-08-26T08:15:02Z</time>
      </trkpt>
      <trkpt lat="42.95818" lon="0.84177">
        <ele>1534.9</ele>
        <time>2026-08-26T08:15:23Z</time>
      </trkpt>
      <trkpt lat="42.95818" lon="0.84166">
        <ele>1537.1</ele>
        <time>2026-08-26T08:15:42Z</time>
      </trkpt>
      <trkpt lat="42.95814" lon="0.84155">
        <ele>1539.2</ele>
        <time>2026-08-26T08:15:59Z</time>
      </trkpt>
      <trkpt lat="42.95812" lon="0.84143">
        <ele>1541.2</ele>
        <time>2026-08-26T08:16:18Z</time>
      </trkpt>
      <trkpt lat="42.95817" lon="0.84136">
        <ele>1543</ele>
        <time>2026-08-26T08:17:53Z</time>
      </trkpt>
      <trkpt lat="42.95826" lon="0.84133">
        <ele>1544.9</ele>
        <time>2026-08-26T08:18:17Z</time>
      </trkpt>
      <trkpt lat="42.95836" lon="0.84133">
        <ele>1546.9</ele>
        <time>2026-08-26T08:18:38Z</time>
      </trkpt>
      <trkpt lat="42.95845" lon="0.84131">
        <ele>1549.3</ele>
        <time>2026-08-26T08:19:03Z</time>
      </trkpt>
      <trkpt lat="42.95854" lon="0.84129">
        <ele>1551.9</ele>
        <time>2026-08-26T08:19:23Z</time>
      </trkpt>
      <trkpt lat="42.95862" lon="0.84125">
        <ele>1554.8</ele>
        <time>2026-08-26T08:19:52Z</time>
      </trkpt>
      <trkpt lat="42.95872" lon="0.84122">
        <ele>1558.5</ele>
        <time>2026-08-26T08:20:13Z</time>
      </trkpt>
      <trkpt lat="42.95881" lon="0.84122">
        <ele>1561.3</ele>
        <time>2026-08-26T08:20:40Z</time>
      </trkpt>
      <trkpt lat="42.95889" lon="0.84116">
        <ele>1565</ele>
        <time>2026-08-26T08:21:05Z</time>
      </trkpt>
      <trkpt lat="42.95896" lon="0.84114">
        <ele>1567</ele>
        <time>2026-08-26T08:21:31Z</time>
      </trkpt>
      <trkpt lat="42.95887" lon="0.84122">
        <ele>1563.1</ele>
        <time>2026-08-26T08:21:48Z</time>
      </trkpt>
      <trkpt lat="42.95879" lon="0.84126">
        <ele>1559.7</ele>
        <time>2026-08-26T08:22:05Z</time>
      </trkpt>
      <trkpt lat="42.9587" lon="0.84126">
        <ele>1557</ele>
        <time>2026-08-26T08:22:23Z</time>
      </trkpt>
      <trkpt lat="42.9586" lon="0.8413">
        <ele>1553</ele>
        <time>2026-08-26T08:22:39Z</time>
      </trkpt>
      <trkpt lat="42.95851" lon="0.84134">
        <ele>1550</ele>
        <time>2026-08-26T08:22:58Z</time>
      </trkpt>
      <trkpt lat="42.95842" lon="0.84135">
        <ele>1547.8</ele>
        <time>2026-08-26T08:23:16Z</time>
      </trkpt>
      <trkpt lat="42.95833" lon="0.84135">
        <ele>1545.8</ele>
        <time>2026-08-26T08:23:33Z</time>
      </trkpt>
      <trkpt lat="42.95823" lon="0.84138">
        <ele>1543.6</ele>
        <time>2026-08-26T08:23:51Z</time>
      </trkpt>
      <trkpt lat="42.95815" lon="0.84143">
        <ele>1541.6</ele>
        <time>2026-08-26T08:24:12Z</time>
      </trkpt>
      <trkpt lat="42.95806" lon="0.84142">
        <ele>1540.6</ele>
        <time>2026-08-26T08:25:49Z</time>
      </trkpt>
      <trkpt lat="42.95798" lon="0.8415">
        <ele>1538.6</ele>
        <time>2026-08-26T08:26:03Z</time>
      </trkpt>
      <trkpt lat="42.95793" lon="0.84155">
        <ele>1537.7</ele>
        <time>2026-08-26T08:26:29Z</time>
      </trkpt>
      <trkpt lat="42.95792" lon="0.84156">
        <ele>1537.6</ele>
        <time>2026-08-26T08:33:55Z</time>
      </trkpt>
      <trkpt lat="42.95788" lon="0.84168">
        <ele>1536.8</ele>
        <time>2026-08-26T08:34:09Z</time>
      </trkpt>
      <trkpt lat="42.95784" lon="0.84179">
        <ele>1535.4</ele>
        <time>2026-08-26T08:34:22Z</time>
      </trkpt>
      <trkpt lat="42.9578" lon="0.84191">
        <ele>1534.2</ele>
        <time>2026-08-26T08:34:42Z</time>
      </trkpt>
      <trkpt lat="42.95773" lon="0.84197">
        <ele>1531.7</ele>
        <time>2026-08-26T08:35:05Z</time>
      </trkpt>
      <trkpt lat="42.95765" lon="0.84202">
        <ele>1527.9</ele>
        <time>2026-08-26T08:35:30Z</time>
      </trkpt>
      <trkpt lat="42.95759" lon="0.84208">
        <ele>1524.7</ele>
        <time>2026-08-26T08:35:53Z</time>
      </trkpt>
      <trkpt lat="42.95752" lon="0.84215">
        <ele>1521.1</ele>
        <time>2026-08-26T08:36:22Z</time>
      </trkpt>
      <trkpt lat="42.95744" lon="0.84222">
        <ele>1516.9</ele>
        <time>2026-08-26T08:36:49Z</time>
      </trkpt>
      <trkpt lat="42.95737" lon="0.84229">
        <ele>1512.7</ele>
        <time>2026-08-26T08:37:15Z</time>
      </trkpt>
      <trkpt lat="42.95732" lon="0.84238">
        <ele>1509.1</ele>
        <time>2026-08-26T08:37:44Z</time>
      </trkpt>
      <trkpt lat="42.95726" lon="0.84249">
        <ele>1505.1</ele>
        <time>2026-08-26T08:38:08Z</time>
      </trkpt>
      <trkpt lat="42.95719" lon="0.84258">
        <ele>1502.8</ele>
        <time>2026-08-26T08:38:22Z</time>
      </trkpt>
      <trkpt lat="42.95712" lon="0.84268">
        <ele>1502.7</ele>
        <time>2026-08-26T08:38:31Z</time>
      </trkpt>
      <trkpt lat="42.95707" lon="0.84279">
        <ele>1503.3</ele>
        <time>2026-08-26T08:38:41Z</time>
      </trkpt>
      <trkpt lat="42.95701" lon="0.84288">
        <ele>1504.5</ele>
        <time>2026-08-26T08:38:53Z</time>
      </trkpt>
      <trkpt lat="42.95697" lon="0.84298">
        <ele>1505.3</ele>
        <time>2026-08-26T08:39:04Z</time>
      </trkpt>
      <trkpt lat="42.95693" lon="0.84309">
        <ele>1506.1</ele>
        <time>2026-08-26T08:39:15Z</time>
      </trkpt>
      <trkpt lat="42.95689" lon="0.84321">
        <ele>1506</ele>
        <time>2026-08-26T08:39:27Z</time>
      </trkpt>
      <trkpt lat="42.95684" lon="0.84334">
        <ele>1506.1</ele>
        <time>2026-08-26T08:39:38Z</time>
      </trkpt>
      <trkpt lat="42.95678" lon="0.84343">
        <ele>1507.3</ele>
        <time>2026-08-26T08:39:50Z</time>
      </trkpt>
      <trkpt lat="42.95672" lon="0.84354">
        <ele>1508.3</ele>
        <time>2026-08-26T08:40:02Z</time>
      </trkpt>
      <trkpt lat="42.95666" lon="0.84365">
        <ele>1510.4</ele>
        <time>2026-08-26T08:40:13Z</time>
      </trkpt>
      <trkpt lat="42.95661" lon="0.84375">
        <ele>1512.3</ele>
        <time>2026-08-26T08:40:29Z</time>
      </trkpt>
      <trkpt lat="42.95659" lon="0.84387">
        <ele>1512.9</ele>
        <time>2026-08-26T08:41:03Z</time>
      </trkpt>
      <trkpt lat="42.95659" lon="0.84403">
        <ele>1513</ele>
        <time>2026-08-26T08:41:34Z</time>
      </trkpt>
      <trkpt lat="42.95652" lon="0.84419">
        <ele>1514.1</ele>
        <time>2026-08-26T08:42:04Z</time>
      </trkpt>
      <trkpt lat="42.95647" lon="0.84433">
        <ele>1514.3</ele>
        <time>2026-08-26T08:42:39Z</time>
      </trkpt>
      <trkpt lat="42.95646" lon="0.8445">
        <ele>1514.1</ele>
        <time>2026-08-26T08:42:54Z</time>
      </trkpt>
      <trkpt lat="42.95645" lon="0.84463">
        <ele>1514.1</ele>
        <time>2026-08-26T08:43:10Z</time>
      </trkpt>
      <trkpt lat="42.95646" lon="0.84481">
        <ele>1514.2</ele>
        <time>2026-08-26T08:43:26Z</time>
      </trkpt>
      <trkpt lat="42.95648" lon="0.84498">
        <ele>1514</ele>
        <time>2026-08-26T08:43:41Z</time>
      </trkpt>
      <trkpt lat="42.95647" lon="0.84516">
        <ele>1514.5</ele>
        <time>2026-08-26T08:43:55Z</time>
      </trkpt>
      <trkpt lat="42.95649" lon="0.84531">
        <ele>1514.5</ele>
        <time>2026-08-26T08:44:13Z</time>
      </trkpt>
      <trkpt lat="42.9565" lon="0.84549">
        <ele>1514.2</ele>
        <time>2026-08-26T08:44:30Z</time>
      </trkpt>
      <trkpt lat="42.95651" lon="0.84566">
        <ele>1513.6</ele>
        <time>2026-08-26T08:44:50Z</time>
      </trkpt>
      <trkpt lat="42.95648" lon="0.84583">
        <ele>1514.1</ele>
        <time>2026-08-26T08:45:11Z</time>
      </trkpt>
      <trkpt lat="42.95644" lon="0.84603">
        <ele>1514.8</ele>
        <time>2026-08-26T08:45:30Z</time>
      </trkpt>
      <trkpt lat="42.95641" lon="0.84622">
        <ele>1514.4</ele>
        <time>2026-08-26T08:45:53Z</time>
      </trkpt>
      <trkpt lat="42.95643" lon="0.84638">
        <ele>1512.6</ele>
        <time>2026-08-26T08:46:12Z</time>
      </trkpt>
      <trkpt lat="42.95643" lon="0.84657">
        <ele>1510.9</ele>
        <time>2026-08-26T08:46:33Z</time>
      </trkpt>
      <trkpt lat="42.9565" lon="0.84671">
        <ele>1509.5</ele>
        <time>2026-08-26T08:46:51Z</time>
      </trkpt>
      <trkpt lat="42.95651" lon="0.84689">
        <ele>1507.4</ele>
        <time>2026-08-26T08:47:11Z</time>
      </trkpt>
      <trkpt lat="42.95652" lon="0.84705">
        <ele>1505.2</ele>
        <time>2026-08-26T08:47:55Z</time>
      </trkpt>
      <trkpt lat="42.95654" lon="0.84719">
        <ele>1503.2</ele>
        <time>2026-08-26T08:48:36Z</time>
      </trkpt>
      <trkpt lat="42.95656" lon="0.8473">
        <ele>1501.7</ele>
        <time>2026-08-26T08:49:13Z</time>
      </trkpt>
      <trkpt lat="42.9566" lon="0.84744">
        <ele>1500.5</ele>
        <time>2026-08-26T08:49:47Z</time>
      </trkpt>
      <trkpt lat="42.95664" lon="0.84759">
        <ele>1500.1</ele>
        <time>2026-08-26T08:50:07Z</time>
      </trkpt>
      <trkpt lat="42.95669" lon="0.8478">
        <ele>1498.4</ele>
        <time>2026-08-26T08:50:25Z</time>
      </trkpt>
      <trkpt lat="42.95669" lon="0.84797">
        <ele>1498.1</ele>
        <time>2026-08-26T08:50:41Z</time>
      </trkpt>
      <trkpt lat="42.95664" lon="0.84816">
        <ele>1494.8</ele>
        <time>2026-08-26T08:51:05Z</time>
      </trkpt>
      <trkpt lat="42.9566" lon="0.84832">
        <ele>1488.7</ele>
        <time>2026-08-26T08:51:25Z</time>
      </trkpt>
      <trkpt lat="42.95657" lon="0.84847">
        <ele>1481.4</ele>
        <time>2026-08-26T08:51:46Z</time>
      </trkpt>
      <trkpt lat="42.95654" lon="0.84859">
        <ele>1475.6</ele>
        <time>2026-08-26T08:52:35Z</time>
      </trkpt>
      <trkpt lat="42.95649" lon="0.84869">
        <ele>1474.3</ele>
        <time>2026-08-26T08:52:56Z</time>
      </trkpt>
      <trkpt lat="42.95648" lon="0.84879">
        <ele>1474.6</ele>
        <time>2026-08-26T08:53:35Z</time>
      </trkpt>
      <trkpt lat="42.95649" lon="0.8489">
        <ele>1475.2</ele>
        <time>2026-08-26T08:53:56Z</time>
      </trkpt>
      <trkpt lat="42.95643" lon="0.84898">
        <ele>1478.3</ele>
        <time>2026-08-26T08:55:50Z</time>
      </trkpt>
      <trkpt lat="42.95635" lon="0.84908">
        <ele>1480.6</ele>
        <time>2026-08-26T08:56:09Z</time>
      </trkpt>
      <trkpt lat="42.95636" lon="0.84919">
        <ele>1484</ele>
        <time>2026-08-26T08:56:34Z</time>
      </trkpt>
      <trkpt lat="42.95635" lon="0.84932">
        <ele>1484.8</ele>
        <time>2026-08-26T08:56:54Z</time>
      </trkpt>
      <trkpt lat="42.95632" lon="0.84943">
        <ele>1484.4</ele>
        <time>2026-08-26T08:57:08Z</time>
      </trkpt>
      <trkpt lat="42.95631" lon="0.84956">
        <ele>1484.9</ele>
        <time>2026-08-26T08:57:23Z</time>
      </trkpt>
      <trkpt lat="42.95629" lon="0.84968">
        <ele>1484.7</ele>
        <time>2026-08-26T08:57:34Z</time>
      </trkpt>
      <trkpt lat="42.95627" lon="0.84982">
        <ele>1484.8</ele>
        <time>2026-08-26T08:57:47Z</time>
      </trkpt>
      <trkpt lat="42.95628" lon="0.84994">
        <ele>1486.2</ele>
        <time>2026-08-26T08:57:59Z</time>
      </trkpt>
      <trkpt lat="42.95623" lon="0.85006">
        <ele>1484.8</ele>
        <time>2026-08-26T08:58:10Z</time>
      </trkpt>
      <trkpt lat="42.9562" lon="0.85019">
        <ele>1484.5</ele>
        <time>2026-08-26T08:58:20Z</time>
      </trkpt>
      <trkpt lat="42.95616" lon="0.85032">
        <ele>1484.8</ele>
        <time>2026-08-26T08:58:30Z</time>
      </trkpt>
      <trkpt lat="42.95613" lon="0.85044">
        <ele>1485.7</ele>
        <time>2026-08-26T08:58:41Z</time>
      </trkpt>
      <trkpt lat="42.95611" lon="0.85056">
        <ele>1487</ele>
        <time>2026-08-26T08:58:52Z</time>
      </trkpt>
      <trkpt lat="42.95607" lon="0.8507">
        <ele>1486.8</ele>
        <time>2026-08-26T08:59:29Z</time>
      </trkpt>
      <trkpt lat="42.95604" lon="0.85083">
        <ele>1487.4</ele>
        <time>2026-08-26T08:59:40Z</time>
      </trkpt>
      <trkpt lat="42.95598" lon="0.85093">
        <ele>1487.9</ele>
        <time>2026-08-26T08:59:52Z</time>
      </trkpt>
      <trkpt lat="42.95593" lon="0.85104">
        <ele>1489</ele>
        <time>2026-08-26T09:00:07Z</time>
      </trkpt>
      <trkpt lat="42.95589" lon="0.85116">
        <ele>1490.3</ele>
        <time>2026-08-26T09:00:21Z</time>
      </trkpt>
      <trkpt lat="42.95588" lon="0.85129">
        <ele>1491.7</ele>
        <time>2026-08-26T09:00:52Z</time>
      </trkpt>
      <trkpt lat="42.95581" lon="0.8514">
        <ele>1493.2</ele>
        <time>2026-08-26T09:01:06Z</time>
      </trkpt>
      <trkpt lat="42.95572" lon="0.85146">
        <ele>1494.6</ele>
        <time>2026-08-26T09:01:26Z</time>
      </trkpt>
      <trkpt lat="42.95565" lon="0.85149">
        <ele>1495.1</ele>
        <time>2026-08-26T09:01:53Z</time>
      </trkpt>
      <trkpt lat="42.95567" lon="0.85158">
        <ele>1498.3</ele>
        <time>2026-08-26T09:02:19Z</time>
      </trkpt>
      <trkpt lat="42.95572" lon="0.85169">
        <ele>1502.1</ele>
        <time>2026-08-26T09:02:57Z</time>
      </trkpt>
      <trkpt lat="42.95578" lon="0.85178">
        <ele>1503.8</ele>
        <time>2026-08-26T09:03:18Z</time>
      </trkpt>
      <trkpt lat="42.95576" lon="0.85187">
        <ele>1504.8</ele>
        <time>2026-08-26T09:03:43Z</time>
      </trkpt>
      <trkpt lat="42.95572" lon="0.85199">
        <ele>1505.7</ele>
        <time>2026-08-26T09:03:57Z</time>
      </trkpt>
      <trkpt lat="42.95568" lon="0.85211">
        <ele>1506.2</ele>
        <time>2026-08-26T09:04:11Z</time>
      </trkpt>
      <trkpt lat="42.95566" lon="0.85223">
        <ele>1506.9</ele>
        <time>2026-08-26T09:04:26Z</time>
      </trkpt>
      <trkpt lat="42.95565" lon="0.85236">
        <ele>1508.1</ele>
        <time>2026-08-26T09:04:40Z</time>
      </trkpt>
      <trkpt lat="42.95565" lon="0.85248">
        <ele>1509.1</ele>
        <time>2026-08-26T09:04:55Z</time>
      </trkpt>
      <trkpt lat="42.95569" lon="0.8526">
        <ele>1509.8</ele>
        <time>2026-08-26T09:05:13Z</time>
      </trkpt>
      <trkpt lat="42.95569" lon="0.85273">
        <ele>1511.5</ele>
        <time>2026-08-26T09:05:27Z</time>
      </trkpt>
      <trkpt lat="42.95571" lon="0.85286">
        <ele>1512.8</ele>
        <time>2026-08-26T09:05:41Z</time>
      </trkpt>
      <trkpt lat="42.95569" lon="0.85299">
        <ele>1514.7</ele>
        <time>2026-08-26T09:07:01Z</time>
      </trkpt>
      <trkpt lat="42.95567" lon="0.85312">
        <ele>1517.3</ele>
        <time>2026-08-26T09:07:18Z</time>
      </trkpt>
      <trkpt lat="42.95565" lon="0.85325">
        <ele>1520.4</ele>
        <time>2026-08-26T09:07:36Z</time>
      </trkpt>
      <trkpt lat="42.95567" lon="0.85336">
        <ele>1523.1</ele>
        <time>2026-08-26T09:07:54Z</time>
      </trkpt>
      <trkpt lat="42.95568" lon="0.85348">
        <ele>1526</ele>
        <time>2026-08-26T09:08:12Z</time>
      </trkpt>
      <trkpt lat="42.95572" lon="0.8536">
        <ele>1529.7</ele>
        <time>2026-08-26T09:08:33Z</time>
      </trkpt>
      <trkpt lat="42.95574" lon="0.85373">
        <ele>1533.3</ele>
        <time>2026-08-26T09:08:56Z</time>
      </trkpt>
      <trkpt lat="42.95579" lon="0.85384">
        <ele>1537.9</ele>
        <time>2026-08-26T09:09:17Z</time>
      </trkpt>
      <trkpt lat="42.95583" lon="0.85395">
        <ele>1541.7</ele>
        <time>2026-08-26T09:09:38Z</time>
      </trkpt>
      <trkpt lat="42.95588" lon="0.85406">
        <ele>1542</ele>
        <time>2026-08-26T09:10:19Z</time>
      </trkpt>
      <trkpt lat="42.95592" lon="0.8542">
        <ele>1543.7</ele>
        <time>2026-08-26T09:10:55Z</time>
      </trkpt>
      <trkpt lat="42.95598" lon="0.85431">
        <ele>1544.3</ele>
        <time>2026-08-26T09:11:11Z</time>
      </trkpt>
      <trkpt lat="42.95605" lon="0.85441">
        <ele>1546.4</ele>
        <time>2026-08-26T09:11:25Z</time>
      </trkpt>
      <trkpt lat="42.95606" lon="0.85446">
        <ele>1547</ele>
        <time>2026-08-26T09:13:00Z</time>
      </trkpt>
      <trkpt lat="42.95611" lon="0.85457">
        <ele>1545.7</ele>
        <time>2026-08-26T09:13:15Z</time>
      </trkpt>
      <trkpt lat="42.95608" lon="0.85447">
        <ele>1547.1</ele>
        <time>2026-08-26T09:14:27Z</time>
      </trkpt>
      <trkpt lat="42.95601" lon="0.8544">
        <ele>1545.8</ele>
        <time>2026-08-26T09:16:27Z</time>
      </trkpt>
      <trkpt lat="42.95595" lon="0.85429">
        <ele>1544.1</ele>
        <time>2026-08-26T09:16:43Z</time>
      </trkpt>
      <trkpt lat="42.95594" lon="0.85416">
        <ele>1542.9</ele>
        <time>2026-08-26T09:17:01Z</time>
      </trkpt>
      <trkpt lat="42.95588" lon="0.85408">
        <ele>1542.4</ele>
        <time>2026-08-26T09:17:45Z</time>
      </trkpt>
      <trkpt lat="42.95589" lon="0.85404">
        <ele>1541.2</ele>
        <time>2026-08-26T09:31:55Z</time>
      </trkpt>
      <trkpt lat="42.95591" lon="0.85404">
        <ele>1540.5</ele>
        <time>2026-08-26T10:00:55Z</time>
      </trkpt>
      <trkpt lat="42.9559" lon="0.85405">
        <ele>1541.1</ele>
        <time>2026-08-26T10:02:37Z</time>
      </trkpt>
      <trkpt lat="42.9559" lon="0.85405">
        <ele>1541.1</ele>
        <time>2026-08-26T10:02:50Z</time>
      </trkpt>
      <trkpt lat="42.9559" lon="0.85408">
        <ele>1541.8</ele>
        <time>2026-08-26T10:27:01Z</time>
      </trkpt>
      <trkpt lat="42.95581" lon="0.85393">
        <ele>1540.6</ele>
        <time>2026-08-26T10:29:03Z</time>
      </trkpt>
      <trkpt lat="42.95575" lon="0.8538">
        <ele>1535.4</ele>
        <time>2026-08-26T10:29:20Z</time>
      </trkpt>
      <trkpt lat="42.95574" lon="0.85367">
        <ele>1531.8</ele>
        <time>2026-08-26T10:29:35Z</time>
      </trkpt>
      <trkpt lat="42.95571" lon="0.85355">
        <ele>1528.2</ele>
        <time>2026-08-26T10:29:48Z</time>
      </trkpt>
      <trkpt lat="42.95568" lon="0.85341">
        <ele>1524.3</ele>
        <time>2026-08-26T10:30:03Z</time>
      </trkpt>
      <trkpt lat="42.95569" lon="0.8533">
        <ele>1521.7</ele>
        <time>2026-08-26T10:31:31Z</time>
      </trkpt>
      <trkpt lat="42.95567" lon="0.85317">
        <ele>1518.5</ele>
        <time>2026-08-26T10:31:51Z</time>
      </trkpt>
      <trkpt lat="42.95569" lon="0.85304">
        <ele>1515.4</ele>
        <time>2026-08-26T10:32:04Z</time>
      </trkpt>
      <trkpt lat="42.9557" lon="0.85291">
        <ele>1513.6</ele>
        <time>2026-08-26T10:32:17Z</time>
      </trkpt>
      <trkpt lat="42.95568" lon="0.85277">
        <ele>1512.1</ele>
        <time>2026-08-26T10:32:27Z</time>
      </trkpt>
      <trkpt lat="42.9557" lon="0.85267">
        <ele>1510.6</ele>
        <time>2026-08-26T10:32:38Z</time>
      </trkpt>
      <trkpt lat="42.95568" lon="0.85256">
        <ele>1509.5</ele>
        <time>2026-08-26T10:32:49Z</time>
      </trkpt>
      <trkpt lat="42.95566" lon="0.85243">
        <ele>1508.6</ele>
        <time>2026-08-26T10:33:00Z</time>
      </trkpt>
      <trkpt lat="42.95565" lon="0.85229">
        <ele>1507.5</ele>
        <time>2026-08-26T10:33:12Z</time>
      </trkpt>
      <trkpt lat="42.95567" lon="0.85218">
        <ele>1506.6</ele>
        <time>2026-08-26T10:33:23Z</time>
      </trkpt>
      <trkpt lat="42.9557" lon="0.85206">
        <ele>1505.9</ele>
        <time>2026-08-26T10:33:35Z</time>
      </trkpt>
      <trkpt lat="42.95574" lon="0.85196">
        <ele>1505.7</ele>
        <time>2026-08-26T10:33:46Z</time>
      </trkpt>
      <trkpt lat="42.9558" lon="0.85186">
        <ele>1504.9</ele>
        <time>2026-08-26T10:33:59Z</time>
      </trkpt>
      <trkpt lat="42.95576" lon="0.85177">
        <ele>1503.5</ele>
        <time>2026-08-26T10:34:18Z</time>
      </trkpt>
      <trkpt lat="42.95568" lon="0.85168">
        <ele>1501.5</ele>
        <time>2026-08-26T10:34:33Z</time>
      </trkpt>
      <trkpt lat="42.95565" lon="0.85156">
        <ele>1497.4</ele>
        <time>2026-08-26T10:34:52Z</time>
      </trkpt>
      <trkpt lat="42.95564" lon="0.85148">
        <ele>1494.7</ele>
        <time>2026-08-26T10:35:10Z</time>
      </trkpt>
      <trkpt lat="42.95574" lon="0.85147">
        <ele>1495.1</ele>
        <time>2026-08-26T10:35:34Z</time>
      </trkpt>
      <trkpt lat="42.95582" lon="0.85141">
        <ele>1493.7</ele>
        <time>2026-08-26T10:35:48Z</time>
      </trkpt>
      <trkpt lat="42.95589" lon="0.85132">
        <ele>1492.1</ele>
        <time>2026-08-26T10:35:59Z</time>
      </trkpt>
      <trkpt lat="42.9559" lon="0.8512">
        <ele>1490.9</ele>
        <time>2026-08-26T10:36:13Z</time>
      </trkpt>
      <trkpt lat="42.95593" lon="0.85108">
        <ele>1489.8</ele>
        <time>2026-08-26T10:36:26Z</time>
      </trkpt>
      <trkpt lat="42.95598" lon="0.85099">
        <ele>1489</ele>
        <time>2026-08-26T10:36:43Z</time>
      </trkpt>
      <trkpt lat="42.95603" lon="0.85087">
        <ele>1487.9</ele>
        <time>2026-08-26T10:36:53Z</time>
      </trkpt>
      <trkpt lat="42.95607" lon="0.85076">
        <ele>1487.4</ele>
        <time>2026-08-26T10:37:02Z</time>
      </trkpt>
      <trkpt lat="42.95611" lon="0.85065">
        <ele>1487.6</ele>
        <time>2026-08-26T10:37:13Z</time>
      </trkpt>
      <trkpt lat="42.95615" lon="0.85052">
        <ele>1486.2</ele>
        <time>2026-08-26T10:37:23Z</time>
      </trkpt>
      <trkpt lat="42.95616" lon="0.85039">
        <ele>1485.2</ele>
        <time>2026-08-26T10:37:32Z</time>
      </trkpt>
      <trkpt lat="42.95621" lon="0.85027">
        <ele>1485</ele>
        <time>2026-08-26T10:37:41Z</time>
      </trkpt>
      <trkpt lat="42.95624" lon="0.85016">
        <ele>1485.3</ele>
        <time>2026-08-26T10:37:50Z</time>
      </trkpt>
      <trkpt lat="42.95627" lon="0.85004">
        <ele>1486.2</ele>
        <time>2026-08-26T10:37:59Z</time>
      </trkpt>
      <trkpt lat="42.95629" lon="0.84991">
        <ele>1486.4</ele>
        <time>2026-08-26T10:38:09Z</time>
      </trkpt>
      <trkpt lat="42.95629" lon="0.84978">
        <ele>1485.4</ele>
        <time>2026-08-26T10:38:19Z</time>
      </trkpt>
      <trkpt lat="42.95631" lon="0.84963">
        <ele>1485.4</ele>
        <time>2026-08-26T10:38:29Z</time>
      </trkpt>
      <trkpt lat="42.95633" lon="0.84951">
        <ele>1485.5</ele>
        <time>2026-08-26T10:38:40Z</time>
      </trkpt>
      <trkpt lat="42.95635" lon="0.84939">
        <ele>1485.5</ele>
        <time>2026-08-26T10:38:51Z</time>
      </trkpt>
      <trkpt lat="42.95638" lon="0.84927">
        <ele>1485.7</ele>
        <time>2026-08-26T10:39:02Z</time>
      </trkpt>
      <trkpt lat="42.95638" lon="0.84913">
        <ele>1483.4</ele>
        <time>2026-08-26T10:39:17Z</time>
      </trkpt>
      <trkpt lat="42.95641" lon="0.84902">
        <ele>1479.8</ele>
        <time>2026-08-26T10:39:34Z</time>
      </trkpt>
      <trkpt lat="42.95647" lon="0.84893">
        <ele>1476.2</ele>
        <time>2026-08-26T10:39:51Z</time>
      </trkpt>
      <trkpt lat="42.95648" lon="0.84881">
        <ele>1474.7</ele>
        <time>2026-08-26T10:40:12Z</time>
      </trkpt>
      <trkpt lat="42.9565" lon="0.84876">
        <ele>1474.5</ele>
        <time>2026-08-26T10:41:30Z</time>
      </trkpt>
      <trkpt lat="42.9565" lon="0.84877">
        <ele>1474.5</ele>
        <time>2026-08-26T10:42:51Z</time>
      </trkpt>
      <trkpt lat="42.9564" lon="0.84875">
        <ele>1474.5</ele>
        <time>2026-08-26T10:43:18Z</time>
      </trkpt>
      <trkpt lat="42.95632" lon="0.84875">
        <ele>1472.3</ele>
        <time>2026-08-26T10:43:34Z</time>
      </trkpt>
      <trkpt lat="42.95622" lon="0.84871">
        <ele>1468.6</ele>
        <time>2026-08-26T10:43:55Z</time>
      </trkpt>
      <trkpt lat="42.95614" lon="0.84878">
        <ele>1466.8</ele>
        <time>2026-08-26T10:44:11Z</time>
      </trkpt>
      <trkpt lat="42.95606" lon="0.84869">
        <ele>1462.3</ele>
        <time>2026-08-26T10:44:27Z</time>
      </trkpt>
      <trkpt lat="42.956" lon="0.8486">
        <ele>1459</ele>
        <time>2026-08-26T10:44:46Z</time>
      </trkpt>
      <trkpt lat="42.95591" lon="0.84869">
        <ele>1454.8</ele>
        <time>2026-08-26T10:45:10Z</time>
      </trkpt>
      <trkpt lat="42.95584" lon="0.84856">
        <ele>1452.4</ele>
        <time>2026-08-26T10:45:42Z</time>
      </trkpt>
      <trkpt lat="42.95578" lon="0.84858">
        <ele>1449</ele>
        <time>2026-08-26T10:46:05Z</time>
      </trkpt>
      <trkpt lat="42.9557" lon="0.84856">
        <ele>1445.6</ele>
        <time>2026-08-26T10:46:28Z</time>
      </trkpt>
      <trkpt lat="42.95559" lon="0.84857">
        <ele>1439.9</ele>
        <time>2026-08-26T10:46:45Z</time>
      </trkpt>
      <trkpt lat="42.95549" lon="0.84861">
        <ele>1435.4</ele>
        <time>2026-08-26T10:47:02Z</time>
      </trkpt>
      <trkpt lat="42.95539" lon="0.84866">
        <ele>1432.7</ele>
        <time>2026-08-26T10:47:24Z</time>
      </trkpt>
      <trkpt lat="42.95532" lon="0.84872">
        <ele>1430.7</ele>
        <time>2026-08-26T10:47:39Z</time>
      </trkpt>
      <trkpt lat="42.95523" lon="0.84876">
        <ele>1428.8</ele>
        <time>2026-08-26T10:47:50Z</time>
      </trkpt>
      <trkpt lat="42.95514" lon="0.8488">
        <ele>1427.2</ele>
        <time>2026-08-26T10:48:02Z</time>
      </trkpt>
      <trkpt lat="42.95503" lon="0.84882">
        <ele>1425.2</ele>
        <time>2026-08-26T10:48:29Z</time>
      </trkpt>
      <trkpt lat="42.95494" lon="0.84881">
        <ele>1423.9</ele>
        <time>2026-08-26T10:48:42Z</time>
      </trkpt>
      <trkpt lat="42.95485" lon="0.84879">
        <ele>1422.5</ele>
        <time>2026-08-26T10:48:54Z</time>
      </trkpt>
      <trkpt lat="42.95475" lon="0.84876">
        <ele>1420.6</ele>
        <time>2026-08-26T10:49:06Z</time>
      </trkpt>
      <trkpt lat="42.95465" lon="0.84875">
        <ele>1419.1</ele>
        <time>2026-08-26T10:49:18Z</time>
      </trkpt>
      <trkpt lat="42.95456" lon="0.84872">
        <ele>1417.4</ele>
        <time>2026-08-26T10:49:29Z</time>
      </trkpt>
      <trkpt lat="42.95447" lon="0.84869">
        <ele>1415.4</ele>
        <time>2026-08-26T10:49:40Z</time>
      </trkpt>
      <trkpt lat="42.9544" lon="0.84865">
        <ele>1413.2</ele>
        <time>2026-08-26T10:49:54Z</time>
      </trkpt>
      <trkpt lat="42.95428" lon="0.84863">
        <ele>1410.6</ele>
        <time>2026-08-26T10:51:18Z</time>
      </trkpt>
      <trkpt lat="42.9542" lon="0.84858">
        <ele>1408.5</ele>
        <time>2026-08-26T10:51:32Z</time>
      </trkpt>
      <trkpt lat="42.95413" lon="0.84848">
        <ele>1406.2</ele>
        <time>2026-08-26T10:51:49Z</time>
      </trkpt>
      <trkpt lat="42.95403" lon="0.84848">
        <ele>1403.9</ele>
        <time>2026-08-26T10:52:06Z</time>
      </trkpt>
      <trkpt lat="42.95393" lon="0.84845">
        <ele>1401</ele>
        <time>2026-08-26T10:52:36Z</time>
      </trkpt>
      <trkpt lat="42.95385" lon="0.8484">
        <ele>1397.7</ele>
        <time>2026-08-26T10:53:01Z</time>
      </trkpt>
      <trkpt lat="42.95383" lon="0.84828">
        <ele>1395.8</ele>
        <time>2026-08-26T10:53:21Z</time>
      </trkpt>
      <trkpt lat="42.95378" lon="0.84816">
        <ele>1394.8</ele>
        <time>2026-08-26T10:53:53Z</time>
      </trkpt>
      <trkpt lat="42.9537" lon="0.84809">
        <ele>1392.6</ele>
        <time>2026-08-26T10:54:20Z</time>
      </trkpt>
      <trkpt lat="42.95361" lon="0.84804">
        <ele>1390</ele>
        <time>2026-08-26T10:54:49Z</time>
      </trkpt>
      <trkpt lat="42.95352" lon="0.84804">
        <ele>1387.4</ele>
        <time>2026-08-26T10:55:10Z</time>
      </trkpt>
      <trkpt lat="42.95341" lon="0.84805">
        <ele>1384.2</ele>
        <time>2026-08-26T10:55:35Z</time>
      </trkpt>
      <trkpt lat="42.9533" lon="0.84796">
        <ele>1380.9</ele>
        <time>2026-08-26T10:56:03Z</time>
      </trkpt>
      <trkpt lat="42.9532" lon="0.84787">
        <ele>1377.4</ele>
        <time>2026-08-26T10:56:33Z</time>
      </trkpt>
      <trkpt lat="42.95308" lon="0.84779">
        <ele>1372.9</ele>
        <time>2026-08-26T10:56:56Z</time>
      </trkpt>
      <trkpt lat="42.95295" lon="0.84772">
        <ele>1368.6</ele>
        <time>2026-08-26T10:57:31Z</time>
      </trkpt>
      <trkpt lat="42.95284" lon="0.84769">
        <ele>1365</ele>
        <time>2026-08-26T10:57:56Z</time>
      </trkpt>
      <trkpt lat="42.95273" lon="0.84771">
        <ele>1361.5</ele>
        <time>2026-08-26T10:58:20Z</time>
      </trkpt>
      <trkpt lat="42.95256" lon="0.84771">
        <ele>1356.1</ele>
        <time>2026-08-26T10:58:42Z</time>
      </trkpt>
      <trkpt lat="42.95241" lon="0.8477">
        <ele>1351.4</ele>
        <time>2026-08-26T10:59:01Z</time>
      </trkpt>
      <trkpt lat="42.95231" lon="0.84776">
        <ele>1347.9</ele>
        <time>2026-08-26T10:59:24Z</time>
      </trkpt>
      <trkpt lat="42.95217" lon="0.84785">
        <ele>1343.1</ele>
        <time>2026-08-26T10:59:46Z</time>
      </trkpt>
      <trkpt lat="42.95203" lon="0.84795">
        <ele>1338.1</ele>
        <time>2026-08-26T11:00:09Z</time>
      </trkpt>
      <trkpt lat="42.95192" lon="0.84805">
        <ele>1334</ele>
        <time>2026-08-26T11:00:31Z</time>
      </trkpt>
      <trkpt lat="42.95181" lon="0.8482">
        <ele>1330.2</ele>
        <time>2026-08-26T11:00:54Z</time>
      </trkpt>
      <trkpt lat="42.95171" lon="0.84826">
        <ele>1326.5</ele>
        <time>2026-08-26T11:01:20Z</time>
      </trkpt>
      <trkpt lat="42.95162" lon="0.84832">
        <ele>1322.8</ele>
        <time>2026-08-26T11:01:46Z</time>
      </trkpt>
      <trkpt lat="42.95153" lon="0.84849">
        <ele>1319.4</ele>
        <time>2026-08-26T11:02:06Z</time>
      </trkpt>
      <trkpt lat="42.95146" lon="0.84864">
        <ele>1317.3</ele>
        <time>2026-08-26T11:02:27Z</time>
      </trkpt>
      <trkpt lat="42.95137" lon="0.8488">
        <ele>1314.4</ele>
        <time>2026-08-26T11:02:49Z</time>
      </trkpt>
      <trkpt lat="42.95132" lon="0.84898">
        <ele>1312.9</ele>
        <time>2026-08-26T11:03:06Z</time>
      </trkpt>
      <trkpt lat="42.95125" lon="0.84914">
        <ele>1310.4</ele>
        <time>2026-08-26T11:03:30Z</time>
      </trkpt>
      <trkpt lat="42.95123" lon="0.84932">
        <ele>1309.6</ele>
        <time>2026-08-26T11:03:46Z</time>
      </trkpt>
      <trkpt lat="42.95123" lon="0.84947">
        <ele>1309.5</ele>
        <time>2026-08-26T11:04:03Z</time>
      </trkpt>
      <trkpt lat="42.95119" lon="0.84965">
        <ele>1307</ele>
        <time>2026-08-26T11:04:22Z</time>
      </trkpt>
      <trkpt lat="42.95113" lon="0.84982">
        <ele>1303.2</ele>
        <time>2026-08-26T11:04:40Z</time>
      </trkpt>
      <trkpt lat="42.95106" lon="0.84997">
        <ele>1298.5</ele>
        <time>2026-08-26T11:05:32Z</time>
      </trkpt>
      <trkpt lat="42.95107" lon="0.85012">
        <ele>1297.9</ele>
        <time>2026-08-26T11:06:06Z</time>
      </trkpt>
      <trkpt lat="42.95106" lon="0.85031">
        <ele>1295.9</ele>
        <time>2026-08-26T11:06:27Z</time>
      </trkpt>
      <trkpt lat="42.95102" lon="0.85047">
        <ele>1292.8</ele>
        <time>2026-08-26T11:06:49Z</time>
      </trkpt>
      <trkpt lat="42.95098" lon="0.85064">
        <ele>1289.7</ele>
        <time>2026-08-26T11:07:11Z</time>
      </trkpt>
      <trkpt lat="42.95097" lon="0.85074">
        <ele>1288.7</ele>
        <time>2026-08-26T11:07:47Z</time>
      </trkpt>
      <trkpt lat="42.95095" lon="0.85078">
        <ele>1287.3</ele>
        <time>2026-08-26T11:08:49Z</time>
      </trkpt>
      <trkpt lat="42.95089" lon="0.85085">
        <ele>1283.5</ele>
        <time>2026-08-26T11:10:12Z</time>
      </trkpt>
      <trkpt lat="42.95092" lon="0.85086">
        <ele>1285.4</ele>
        <time>2026-08-26T11:10:47Z</time>
      </trkpt>
      <trkpt lat="42.95096" lon="0.85087">
        <ele>1287.9</ele>
        <time>2026-08-26T11:11:22Z</time>
      </trkpt>
      <trkpt lat="42.95096" lon="0.85099">
        <ele>1288.3</ele>
        <time>2026-08-26T11:11:42Z</time>
      </trkpt>
      <trkpt lat="42.95083" lon="0.85124">
        <ele>1281.7</ele>
        <time>2026-08-26T11:12:00Z</time>
      </trkpt>
      <trkpt lat="42.95077" lon="0.85139">
        <ele>1279.1</ele>
        <time>2026-08-26T11:12:16Z</time>
      </trkpt>
      <trkpt lat="42.95072" lon="0.85157">
        <ele>1279.1</ele>
        <time>2026-08-26T11:12:34Z</time>
      </trkpt>
      <trkpt lat="42.95065" lon="0.85177">
        <ele>1278.2</ele>
        <time>2026-08-26T11:12:53Z</time>
      </trkpt>
      <trkpt lat="42.95058" lon="0.85195">
        <ele>1277.6</ele>
        <time>2026-08-26T11:13:11Z</time>
      </trkpt>
      <trkpt lat="42.95048" lon="0.85212">
        <ele>1275</ele>
        <time>2026-08-26T11:13:30Z</time>
      </trkpt>
      <trkpt lat="42.95041" lon="0.85215">
        <ele>1271.1</ele>
        <time>2026-08-26T11:13:54Z</time>
      </trkpt>
      <trkpt lat="42.95033" lon="0.85202">
        <ele>1263.6</ele>
        <time>2026-08-26T11:14:36Z</time>
      </trkpt>
      <trkpt lat="42.95033" lon="0.85184">
        <ele>1259.9</ele>
        <time>2026-08-26T11:14:59Z</time>
      </trkpt>
      <trkpt lat="42.95034" lon="0.85161">
        <ele>1256</ele>
        <time>2026-08-26T11:15:19Z</time>
      </trkpt>
      <trkpt lat="42.95033" lon="0.85137">
        <ele>1252</ele>
        <time>2026-08-26T11:15:39Z</time>
      </trkpt>
      <trkpt lat="42.9503" lon="0.85117">
        <ele>1248.1</ele>
        <time>2026-08-26T11:15:59Z</time>
      </trkpt>
      <trkpt lat="42.95026" lon="0.851">
        <ele>1244.6</ele>
        <time>2026-08-26T11:16:13Z</time>
      </trkpt>
      <trkpt lat="42.95025" lon="0.85086">
        <ele>1243.5</ele>
        <time>2026-08-26T11:16:25Z</time>
      </trkpt>
      <trkpt lat="42.95024" lon="0.85073">
        <ele>1243.1</ele>
        <time>2026-08-26T11:16:36Z</time>
      </trkpt>
      <trkpt lat="42.95023" lon="0.85058">
        <ele>1243</ele>
        <time>2026-08-26T11:16:57Z</time>
      </trkpt>
      <trkpt lat="42.95016" lon="0.8506">
        <ele>1238.7</ele>
        <time>2026-08-26T11:17:14Z</time>
      </trkpt>
      <trkpt lat="42.95016" lon="0.85077">
        <ele>1238.3</ele>
        <time>2026-08-26T11:17:25Z</time>
      </trkpt>
      <trkpt lat="42.95013" lon="0.85089">
        <ele>1236.7</ele>
        <time>2026-08-26T11:17:36Z</time>
      </trkpt>
      <trkpt lat="42.95009" lon="0.85103">
        <ele>1234.9</ele>
        <time>2026-08-26T11:17:49Z</time>
      </trkpt>
      <trkpt lat="42.95006" lon="0.85117">
        <ele>1234.1</ele>
        <time>2026-08-26T11:18:02Z</time>
      </trkpt>
      <trkpt lat="42.95" lon="0.8513">
        <ele>1232</ele>
        <time>2026-08-26T11:18:15Z</time>
      </trkpt>
      <trkpt lat="42.94994" lon="0.85145">
        <ele>1231.6</ele>
        <time>2026-08-26T11:18:28Z</time>
      </trkpt>
      <trkpt lat="42.94987" lon="0.85155">
        <ele>1230.6</ele>
        <time>2026-08-26T11:18:41Z</time>
      </trkpt>
      <trkpt lat="42.94977" lon="0.85167">
        <ele>1229</ele>
        <time>2026-08-26T11:18:58Z</time>
      </trkpt>
      <trkpt lat="42.94966" lon="0.85175">
        <ele>1227.3</ele>
        <time>2026-08-26T11:19:13Z</time>
      </trkpt>
      <trkpt lat="42.94954" lon="0.85183">
        <ele>1225.9</ele>
        <time>2026-08-26T11:19:28Z</time>
      </trkpt>
      <trkpt lat="42.94942" lon="0.85187">
        <ele>1223.3</ele>
        <time>2026-08-26T11:19:43Z</time>
      </trkpt>
      <trkpt lat="42.94951" lon="0.85173">
        <ele>1222.5</ele>
        <time>2026-08-26T11:19:58Z</time>
      </trkpt>
      <trkpt lat="42.94956" lon="0.85158">
        <ele>1220.5</ele>
        <time>2026-08-26T11:20:21Z</time>
      </trkpt>
      <trkpt lat="42.94961" lon="0.85144">
        <ele>1218.9</ele>
        <time>2026-08-26T11:20:43Z</time>
      </trkpt>
      <trkpt lat="42.9495" lon="0.85138">
        <ele>1214.4</ele>
        <time>2026-08-26T11:21:04Z</time>
      </trkpt>
      <trkpt lat="42.94938" lon="0.8514">
        <ele>1211.2</ele>
        <time>2026-08-26T11:21:34Z</time>
      </trkpt>
      <trkpt lat="42.94932" lon="0.85136">
        <ele>1208.2</ele>
        <time>2026-08-26T11:22:33Z</time>
      </trkpt>
      <trkpt lat="42.94929" lon="0.85134">
        <ele>1206.8</ele>
        <time>2026-08-26T11:23:09Z</time>
      </trkpt>
      <trkpt lat="42.9492" lon="0.8514">
        <ele>1205.3</ele>
        <time>2026-08-26T11:23:31Z</time>
      </trkpt>
      <trkpt lat="42.94902" lon="0.85142">
        <ele>1199.9</ele>
        <time>2026-08-26T11:23:54Z</time>
      </trkpt>
      <trkpt lat="42.94888" lon="0.8515">
        <ele>1196.7</ele>
        <time>2026-08-26T11:24:16Z</time>
      </trkpt>
      <trkpt lat="42.94873" lon="0.85151">
        <ele>1191</ele>
        <time>2026-08-26T11:24:33Z</time>
      </trkpt>
      <trkpt lat="42.94858" lon="0.85158">
        <ele>1185.8</ele>
        <time>2026-08-26T11:24:54Z</time>
      </trkpt>
      <trkpt lat="42.94844" lon="0.85168">
        <ele>1181.3</ele>
        <time>2026-08-26T11:25:15Z</time>
      </trkpt>
      <trkpt lat="42.94836" lon="0.85176">
        <ele>1178.5</ele>
        <time>2026-08-26T11:25:42Z</time>
      </trkpt>
      <trkpt lat="42.94827" lon="0.8519">
        <ele>1175.1</ele>
        <time>2026-08-26T11:26:05Z</time>
      </trkpt>
      <trkpt lat="42.94819" lon="0.85204">
        <ele>1172.3</ele>
        <time>2026-08-26T11:26:33Z</time>
      </trkpt>
      <trkpt lat="42.94813" lon="0.85215">
        <ele>1170.2</ele>
        <time>2026-08-26T11:27:32Z</time>
      </trkpt>
      <trkpt lat="42.94807" lon="0.85229">
        <ele>1168.2</ele>
        <time>2026-08-26T11:28:03Z</time>
      </trkpt>
      <trkpt lat="42.948" lon="0.85244">
        <ele>1166.3</ele>
        <time>2026-08-26T11:28:21Z</time>
      </trkpt>
      <trkpt lat="42.94793" lon="0.85253">
        <ele>1163.6</ele>
        <time>2026-08-26T11:28:50Z</time>
      </trkpt>
      <trkpt lat="42.94787" lon="0.85268">
        <ele>1161.4</ele>
        <time>2026-08-26T11:29:19Z</time>
      </trkpt>
      <trkpt lat="42.94777" lon="0.85282">
        <ele>1157.7</ele>
        <time>2026-08-26T11:29:44Z</time>
      </trkpt>
      <trkpt lat="42.94766" lon="0.8529">
        <ele>1153.1</ele>
        <time>2026-08-26T11:30:12Z</time>
      </trkpt>
      <trkpt lat="42.94761" lon="0.85301">
        <ele>1150.9</ele>
        <time>2026-08-26T11:30:44Z</time>
      </trkpt>
      <trkpt lat="42.94752" lon="0.85318">
        <ele>1146.9</ele>
        <time>2026-08-26T11:31:09Z</time>
      </trkpt>
      <trkpt lat="42.94747" lon="0.8533">
        <ele>1144.7</ele>
        <time>2026-08-26T11:31:40Z</time>
      </trkpt>
      <trkpt lat="42.9474" lon="0.85341">
        <ele>1141.4</ele>
        <time>2026-08-26T11:32:23Z</time>
      </trkpt>
      <trkpt lat="42.94729" lon="0.85344">
        <ele>1136.5</ele>
        <time>2026-08-26T11:32:47Z</time>
      </trkpt>
      <trkpt lat="42.94721" lon="0.85353">
        <ele>1132.8</ele>
        <time>2026-08-26T11:33:06Z</time>
      </trkpt>
      <trkpt lat="42.94714" lon="0.85362">
        <ele>1129.4</ele>
        <time>2026-08-26T11:33:55Z</time>
      </trkpt>
      <trkpt lat="42.94702" lon="0.8537">
        <ele>1123.4</ele>
        <time>2026-08-26T11:34:16Z</time>
      </trkpt>
      <trkpt lat="42.94694" lon="0.85378">
        <ele>1119</ele>
        <time>2026-08-26T11:35:17Z</time>
      </trkpt>
      <trkpt lat="42.94686" lon="0.85389">
        <ele>1115</ele>
        <time>2026-08-26T11:35:42Z</time>
      </trkpt>
      <trkpt lat="42.94676" lon="0.85402">
        <ele>1110.1</ele>
        <time>2026-08-26T11:36:32Z</time>
      </trkpt>
      <trkpt lat="42.94667" lon="0.85404">
        <ele>1106.5</ele>
        <time>2026-08-26T11:36:50Z</time>
      </trkpt>
      <trkpt lat="42.94663" lon="0.85412">
        <ele>1104.4</ele>
        <time>2026-08-26T11:37:38Z</time>
      </trkpt>
      <trkpt lat="42.94652" lon="0.85415">
        <ele>1101</ele>
        <time>2026-08-26T11:37:56Z</time>
      </trkpt>
      <trkpt lat="42.94643" lon="0.85405">
        <ele>1099.4</ele>
        <time>2026-08-26T11:38:14Z</time>
      </trkpt>
      <trkpt lat="42.94633" lon="0.85399">
        <ele>1097.3</ele>
        <time>2026-08-26T11:38:34Z</time>
      </trkpt>
      <trkpt lat="42.94616" lon="0.85394">
        <ele>1093.5</ele>
        <time>2026-08-26T11:38:57Z</time>
      </trkpt>
      <trkpt lat="42.946" lon="0.85391">
        <ele>1089.9</ele>
        <time>2026-08-26T11:39:21Z</time>
      </trkpt>
      <trkpt lat="42.94588" lon="0.85387">
        <ele>1087.3</ele>
        <time>2026-08-26T11:39:41Z</time>
      </trkpt>
      <trkpt lat="42.94574" lon="0.85386">
        <ele>1084.2</ele>
        <time>2026-08-26T11:40:04Z</time>
      </trkpt>
      <trkpt lat="42.94558" lon="0.85385">
        <ele>1080.8</ele>
        <time>2026-08-26T11:40:24Z</time>
      </trkpt>
      <trkpt lat="42.94545" lon="0.85388">
        <ele>1077.8</ele>
        <time>2026-08-26T11:40:41Z</time>
      </trkpt>
      <trkpt lat="42.94533" lon="0.85387">
        <ele>1075.3</ele>
        <time>2026-08-26T11:40:59Z</time>
      </trkpt>
      <trkpt lat="42.94524" lon="0.85387">
        <ele>1073.8</ele>
        <time>2026-08-26T11:41:14Z</time>
      </trkpt>
      <trkpt lat="42.94514" lon="0.8539">
        <ele>1072.4</ele>
        <time>2026-08-26T11:41:29Z</time>
      </trkpt>
      <trkpt lat="42.9451" lon="0.85396">
        <ele>1071.2</ele>
        <time>2026-08-26T11:47:40Z</time>
      </trkpt>
      <trkpt lat="42.94511" lon="0.85389">
        <ele>1072.2</ele>
        <time>2026-08-26T11:49:16Z</time>
      </trkpt>
      <trkpt lat="42.94503" lon="0.85401">
        <ele>1070</ele>
        <time>2026-08-26T11:49:35Z</time>
      </trkpt>
      <trkpt lat="42.94508" lon="0.8541">
        <ele>1069.4</ele>
        <time>2026-08-26T11:49:51Z</time>
      </trkpt>
      <trkpt lat="42.94516" lon="0.85419">
        <ele>1068.7</ele>
        <time>2026-08-26T11:50:08Z</time>
      </trkpt>
      <trkpt lat="42.94519" lon="0.85422">
        <ele>1068.3</ele>
        <time>2026-08-26T11:51:07Z</time>
      </trkpt>
      <trkpt lat="42.94519" lon="0.85422">
        <ele>1068.3</ele>
        <time>2026-08-26T11:51:10Z</time>
      </trkpt>
    </trkseg>
  </trk>
</gpx>